Portada
METAR-TAF:

METAR-TAF

Aeropuertos :

Orange, Francia

latitud: 44-08N, longitud: 004-50E, altitud: 60 m

Observación

El informe se hizo hace 21 minutos, a las 16:00 UTC
Viento 3 kt del sur-sureste, variando entre sureste y sur
Temperatura 31°C
Humedad 38%
Presión 1015 hPa
Visibilidad 10 km o más
sin nubes por debajo de 1500 m y sin presencia de cumulonimbus.

METAR: LFMO 211600Z AUTO 15003KT 130V190 CAVOK 31/15 Q1015 NOSIG

Hora: 18:21 (16:21 UTC)

Pronóstico

El informe se hizo hace 2 horas y 21 minutos, a las 14:00 UTC
Pronóstico válido del 21 a las 15 UTC al 22 a las 15 UTC
Viento 5 kt del sur-suroeste
Visibilidad 10 km o más
sin nubes por debajo de 1500 m y sin presencia de cumulonimbus.
Evolucionando progresivamente
del 21 a las 19 UTC al 21 a las 21 UTC
Viento 15 kt del norte-noroeste con ráfagas de 25 kt

TAF: LFMO 211400Z 2115/2215 20005KT CAVOK BECMG 2119/2121 33015G25KT

Observaciones y pronósticos meteorológicos de más de 4000 aeropuertos (mensajes METAR y TAF).

Los puntos amarillos y rojos representan las estaciones disponibles.

Ponga el ratón en el punto deseado para ver el nombre de la estación.

Haga clic para ver las observaciones y los pronósticos meteorológicos.

Para cambiar el mapa : haga clic en los botones verdes con una cruz de color negro para hacer un zoom, en el botón verde con un guión para alejar o en las flechas verdes para mapas adyacentes.


METAR-TAF: